Time;durP1;ratioP1;P1;durP2;ratioP2;P2;SDS_P1;SDS_P2;PMS_P1;PMS_P2;Temp;Humidity;BMP_temperature;BMP_pressure;BME280_temperature;BME280_humidity;BME280_pressure;Samples;Min_cycle;Max_cycle;Signal;HPM_P1;HPM_P2
2023/06/08 00:01:25;;;;;;;4.88;4.38;;;12.70;99.90;;;;;;5100850;28;20036;-80
2023/06/08 00:03:52;;;;;;;;;;;12.70;99.90;;;;;;5103875;28;20045;-80
2023/06/08 00:06:20;;;;;;;4.45;4.00;;;12.80;99.90;;;;;;5083335;28;19920;-81
2023/06/08 00:08:46;;;;;;;5.05;4.50;;;12.70;99.90;;;;;;5097585;28;20028;-81
2023/06/08 00:11:12;;;;;;;5.70;4.47;;;12.70;99.90;;;;;;5103152;28;20039;-80
2023/06/08 00:13:38;;;;;;;6.70;4.20;;;12.80;99.90;;;;;;5096018;28;20056;-81
2023/06/08 00:16:04;;;;;;;4.82;4.00;;;12.80;99.90;;;;;;5098404;28;20315;-80
2023/06/08 00:18:30;;;;;;;4.47;4.05;;;12.70;99.90;;;;;;5100134;28;20027;-81
2023/06/08 00:20:57;;;;;;;5.25;4.43;;;12.70;99.90;;;;;;5102491;28;20032;-80
2023/06/08 00:23:22;;;;;;;5.50;4.43;;;12.70;99.90;;;;;;5094525;28;20044;-80
2023/06/08 00:25:48;;;;;;;4.93;4.03;;;12.60;99.90;;;;;;5098598;28;20024;-80
2023/06/08 00:28:15;;;;;;;4.57;4.13;;;12.70;99.90;;;;;;5091448;28;20033;-82
2023/06/08 00:30:42;;;;;;;4.97;4.47;;;12.70;99.90;;;;;;5092089;28;20142;-79
2023/06/08 00:33:07;;;;;;;5.43;4.45;;;12.70;99.90;;;;;;5094374;28;20020;-81
2023/06/08 00:35:33;;;;;;;7.72;4.10;;;12.60;99.90;;;;;;5101122;28;20040;-80
2023/06/08 00:37:58;;;;;;;5.53;4.00;;;12.30;99.90;;;;;;5100620;28;20036;-81
2023/06/08 00:40:24;;;;;;;4.28;3.88;;;11.90;99.90;;;;;;5107988;28;20028;-81
2023/06/08 00:42:50;;;;;;;6.10;4.25;;;11.70;99.90;;;;;;5104467;28;20028;-80
2023/06/08 00:45:16;;;;;;;5.25;4.07;;;11.70;99.90;;;;;;5102284;28;20021;-80
2023/06/08 00:47:41;;;;;;;5.18;4.40;;;11.80;99.90;;;;;;5104015;28;20012;-80
2023/06/08 00:50:08;;;;;;;4.30;3.90;;;11.90;99.90;;;;;;5104180;28;20077;-80
2023/06/08 00:52:34;;;;;;;4.43;4.00;;;11.90;99.90;;;;;;5106636;28;20089;-81
2023/06/08 00:55:02;;;;;;;6.13;4.38;;;12.10;99.90;;;;;;5106741;28;20039;-81
2023/06/08 00:57:30;;;;;;;5.75;4.57;;;12.10;99.90;;;;;;5105105;28;20055;-81
2023/06/08 00:59:59;;;;;;;5.65;4.60;;;12.10;99.90;;;;;;5082807;28;20063;-81
2023/06/08 01:02:24;;;;;;;5.18;4.65;;;12.10;99.90;;;;;;5088541;28;20048;-74
2023/06/08 01:04:50;;;;;;;5.75;4.20;;;12.00;99.90;;;;;;5085414;28;20111;-76
2023/06/08 01:07:31;;;;;;;5.00;4.50;;;12.00;99.90;;;;;;5085846;28;20036;-74
2023/06/08 01:10:21;;;;;;;5.38;4.55;;;11.90;99.90;;;;;;5086635;28;20875;-74
2023/06/08 01:13:07;;;;;;;6.13;4.53;;;11.90;99.90;;;;;;5083767;28;20062;-74
2023/06/08 01:15:40;;;;;;;6.00;4.15;;;11.70;99.90;;;;;;5063169;28;20170;-75
2023/06/08 01:18:08;;;;;;;5.32;4.60;;;11.70;99.90;;;;;;5095998;22;20048;-34
2023/06/08 01:20:48;;;;;;;5.23;4.73;;;11.70;99.90;;;;;;5069511;28;20044;-33
2023/06/08 01:24:03;;;;;;;4.85;4.20;;;11.30;99.90;;;;;;5066755;28;20025;-33
2023/06/08 01:26:31;;;;;;;5.78;4.85;;;11.40;99.90;;;;;;5029440;28;20389;-32
2023/06/08 01:28:57;;;;;;;7.07;4.47;;;11.30;99.90;;;;;;5066558;28;20968;-37
2023/06/08 01:31:22;;;;;;;5.72;4.40;;;11.40;99.90;;;;;;5072990;28;20139;-33
2023/06/08 01:33:48;;;;;;;5.88;4.63;;;11.40;99.90;;;;;;5063421;28;20024;-34
2023/06/08 01:36:33;;;;;;;5.22;4.53;;;11.50;99.90;;;;;;5063377;28;20056;-37
2023/06/08 01:39:24;;;;;;;5.00;4.10;;;11.50;99.90;;;;;;5065447;28;20397;-33
2023/06/08 01:41:54;;;;;;;5.50;4.45;;;11.40;99.90;;;;;;5065760;28;20590;-34
2023/06/08 01:44:21;;;;;;;5.65;4.53;;;11.40;99.90;;;;;;5065702;28;20032;-34
2023/06/08 01:46:59;;;;;;;4.70;4.30;;;11.30;99.90;;;;;;5067191;28;20098;-33
2023/06/08 01:49:27;;;;;;;5.72;4.22;;;11.30;99.90;;;;;;5064205;28;20044;-34
2023/06/08 01:51:53;;;;;;;5.18;4.38;;;11.00;99.90;;;;;;5064774;28;20501;-34
2023/06/08 01:54:21;;;;;;;4.70;4.18;;;11.00;99.90;;;;;;5067858;28;20028;-34
2023/06/08 01:56:47;;;;;;;4.90;4.40;;;11.10;99.90;;;;;;5064527;28;20051;-34
2023/06/08 01:59:13;;;;;;;5.00;4.53;;;11.20;99.90;;;;;;5069528;28;20393;-37
2023/06/08 02:01:38;;;;;;;4.97;3.95;;;11.30;99.90;;;;;;5065530;28;20043;-37
2023/06/08 02:04:04;;;;;;;5.13;4.53;;;11.30;99.90;;;;;;5040691;28;20029;-38
2023/06/08 02:06:30;;;;;;;5.07;4.55;;;11.40;99.90;;;;;;5046102;28;20500;-33
2023/06/08 02:08:56;;;;;;;5.68;4.35;;;11.30;99.90;;;;;;5060440;28;20052;-34
2023/06/08 02:11:22;;;;;;;4.90;4.28;;;11.30;99.90;;;;;;5067750;28;20550;-33
2023/06/08 02:13:48;;;;;;;5.18;4.47;;;11.30;99.90;;;;;;5064857;28;20037;-36
2023/06/08 02:16:14;;;;;;;6.05;4.65;;;11.30;99.90;;;;;;5068298;28;20104;-35
2023/06/08 02:18:41;;;;;;;5.20;4.70;;;11.30;99.90;;;;;;5067938;28;20576;-33
2023/06/08 02:21:10;;;;;;;5.22;4.72;;;11.10;99.90;;;;;;5070062;28;20063;-36
2023/06/08 02:23:36;;;;;;;5.13;4.28;;;11.10;99.90;;;;;;5065024;28;20038;-36
2023/06/08 02:26:03;;;;;;;5.38;4.68;;;11.10;99.90;;;;;;5042957;28;20025;-33
2023/06/08 02:28:29;;;;;;;6.22;3.92;;;11.10;99.90;;;;;;5074867;28;20028;-34
2023/06/08 02:30:55;;;;;;;7.25;4.55;;;11.10;99.90;;;;;;5062446;28;20043;-36
2023/06/08 02:33:21;;;;;;;5.13;4.63;;;11.10;99.90;;;;;;5070543;28;20032;-36
2023/06/08 02:35:48;;;;;;;5.63;4.97;;;11.10;99.90;;;;;;5063370;28;20138;-35
2023/06/08 02:38:13;;;;;;;5.30;4.70;;;11.10;99.90;;;;;;5066377;28;20039;-35
2023/06/08 02:40:39;;;;;;;5.75;4.65;;;11.00;99.90;;;;;;5048999;28;20448;-37
2023/06/08 02:43:05;;;;;;;5.47;4.72;;;11.00;99.90;;;;;;5068107;28;20049;-35
2023/06/08 02:45:30;;;;;;;6.05;4.50;;;10.90;99.90;;;;;;5067936;28;20021;-37
2023/06/08 02:47:57;;;;;;;6.25;4.88;;;10.90;99.90;;;;;;5064139;28;20144;-35
2023/06/08 02:50:23;;;;;;;5.43;4.45;;;10.90;99.90;;;;;;5072055;28;20386;-35
2023/06/08 02:52:49;;;;;;;6.35;5.00;;;11.00;99.90;;;;;;5042933;28;20029;-34
2023/06/08 02:55:15;;;;;;;5.65;4.85;;;11.00;99.90;;;;;;5069704;28;20031;-34
2023/06/08 02:57:41;;;;;;;5.30;4.45;;;11.00;99.90;;;;;;5068817;28;20484;-36
2023/06/08 03:00:08;;;;;;;5.68;4.82;;;11.10;99.90;;;;;;5064002;28;20021;-35
2023/06/08 03:02:34;;;;;;;5.43;4.93;;;10.90;99.90;;;;;;5066614;28;20035;-33
2023/06/08 03:05:03;;;;;;;5.18;4.60;;;10.90;99.90;;;;;;5060385;28;20029;-34
2023/06/08 03:07:29;;;;;;;7.72;4.70;;;10.90;99.90;;;;;;5071863;28;20078;-35
2023/06/08 03:09:55;;;;;;;5.22;4.72;;;10.90;99.90;;;;;;5063149;28;20564;-35
2023/06/08 03:12:21;;;;;;;5.25;4.75;;;10.70;99.90;;;;;;5070560;28;20040;-34
2023/06/08 03:14:48;;;;;;;6.03;4.50;;;10.70;99.90;;;;;;5065170;28;20052;-35
2023/06/08 03:17:17;;;;;;;5.07;4.60;;;10.80;99.90;;;;;;5044524;28;20387;-36
2023/06/08 03:19:43;;;;;;;4.95;4.47;;;10.80;99.90;;;;;;5051000;28;20041;-36
2023/06/08 03:22:09;;;;;;;6.15;4.60;;;10.80;99.90;;;;;;5048906;28;20713;-36
2023/06/08 03:24:38;;;;;;;5.63;4.50;;;10.80;99.90;;;;;;5043454;28;20029;-41
2023/06/08 03:27:07;;;;;;;4.78;4.28;;;10.70;99.90;;;;;;5039155;28;20037;-32
2023/06/08 03:29:33;;;;;;;4.72;4.22;;;10.20;99.90;;;;;;5043851;28;20592;-31
2023/06/08 03:32:00;;;;;;;5.15;4.65;;;10.10;99.90;;;;;;5047494;28;20033;-33
2023/06/08 03:34:26;;;;;;;5.50;5.00;;;10.10;99.90;;;;;;5046654;28;20040;-30
2023/06/08 03:36:53;;;;;;;5.60;4.88;;;10.10;99.90;;;;;;5045801;28;20037;-31
2023/06/08 03:39:19;;;;;;;6.57;5.10;;;10.30;99.90;;;;;;5041368;28;20417;-33
2023/06/08 03:41:45;;;;;;;6.25;4.80;;;10.30;99.90;;;;;;5047019;28;20025;-31
2023/06/08 03:44:14;;;;;;;5.97;4.68;;;10.40;99.90;;;;;;5046110;28;20026;-32
2023/06/08 03:46:39;;;;;;;6.90;5.13;;;10.50;99.90;;;;;;5051352;28;20028;-32
2023/06/08 03:49:05;;;;;;;6.22;5.10;;;10.60;99.90;;;;;;5046614;28;20079;-33
2023/06/08 03:51:31;;;;;;;5.13;4.50;;;10.60;99.90;;;;;;5049778;28;20028;-31
2023/06/08 03:53:57;;;;;;;5.28;4.53;;;10.70;99.90;;;;;;5043601;28;20029;-36
2023/06/08 03:56:23;;;;;;;6.65;4.85;;;10.70;99.90;;;;;;5050605;28;20040;-31
2023/06/08 03:58:51;;;;;;;5.63;5.13;;;10.70;99.90;;;;;;5048830;28;20036;-34
2023/06/08 04:01:17;;;;;;;5.63;4.40;;;10.70;99.90;;;;;;5045477;28;20099;-32
2023/06/08 04:03:43;;;;;;;5.88;4.72;;;10.70;99.90;;;;;;5049363;28;20033;-31
2023/06/08 04:06:09;;;;;;;5.70;4.70;;;10.70;99.90;;;;;;5042808;28;20542;-33
2023/06/08 04:08:42;;;;;;;5.90;4.82;;;10.70;99.90;;;;;;5047600;28;20036;-36
2023/06/08 04:11:08;;;;;;;5.88;4.78;;;10.60;99.90;;;;;;5042132;28;20427;-33
2023/06/08 04:13:38;;;;;;;5.60;5.10;;;10.60;99.90;;;;;;5047380;28;20021;-37
2023/06/08 04:16:08;;;;;;;6.78;4.80;;;10.60;99.90;;;;;;5047569;28;20120;-32
2023/06/08 04:18:41;;;;;;;5.93;4.50;;;10.70;99.90;;;;;;5048501;28;20049;-31
2023/06/08 04:21:07;;;;;;;5.60;5.00;;;10.70;99.90;;;;;;5045792;28;20017;-32
2023/06/08 04:23:39;;;;;;;5.85;5.25;;;10.70;99.90;;;;;;5060175;28;20033;-33
2023/06/08 04:26:07;;;;;;;6.10;5.40;;;10.80;99.90;;;;;;5048481;28;20073;-34
2023/06/08 04:28:34;;;;;;;5.50;4.97;;;10.90;99.90;;;;;;5052787;28;20033;-35
2023/06/08 04:31:00;;;;;;;7.47;5.05;;;10.90;99.90;;;;;;5047104;28;20114;-31
2023/06/08 04:33:30;;;;;;;5.63;4.88;;;10.90;99.90;;;;;;5051378;28;20116;-32
2023/06/08 04:35:56;;;;;;;5.78;5.18;;;11.10;99.90;;;;;;5048766;28;20576;-41
2023/06/08 04:38:22;;;;;;;7.22;5.28;;;11.10;99.90;;;;;;5046072;28;20086;-42
2023/06/08 04:40:49;;;;;;;7.18;5.50;;;11.20;99.90;;;;;;5051980;28;20020;-42
2023/06/08 04:43:17;;;;;;;6.13;5.53;;;11.40;99.90;;;;;;5046058;28;20112;-42
2023/06/08 04:45:43;;;;;;;6.05;5.38;;;11.50;99.90;;;;;;5051320;28;20017;-43
2023/06/08 04:48:10;;;;;;;5.85;5.05;;;11.50;99.90;;;;;;5050168;28;20052;-42
2023/06/08 04:50:37;;;;;;;6.32;5.72;;;11.60;99.90;;;;;;5046435;28;20025;-38
2023/06/08 04:53:04;;;;;;;7.65;6.07;;;11.50;99.90;;;;;;5049984;28;20032;-41
2023/06/08 04:55:30;;;;;;;7.40;6.40;;;11.60;99.90;;;;;;5046767;28;20029;-41
2023/06/08 04:57:56;;;;;;;6.60;5.80;;;11.60;99.90;;;;;;5053800;28;20041;-40
2023/06/08 05:00:22;;;;;;;6.72;5.82;;;11.60;99.90;;;;;;5047568;28;20024;-40
2023/06/08 05:02:48;;;;;;;6.18;5.50;;;11.70;99.90;;;;;;5050298;28;20470;-40
2023/06/08 05:05:14;;;;;;;6.60;5.80;;;11.80;99.90;;;;;;5039691;28;20057;-39
2023/06/08 05:07:42;;;;;;;8.82;6.10;;;11.80;99.90;;;;;;5045914;28;20061;-40
2023/06/08 05:10:08;;;;;;;7.32;5.80;;;11.90;99.90;;;;;;5050307;28;20044;-40
2023/06/08 05:12:33;;;;;;;6.47;5.70;;;12.00;99.90;;;;;;5046501;28;20033;-41
2023/06/08 05:15:00;;;;;;;6.53;5.88;;;12.10;99.90;;;;;;5051571;28;20702;-41
2023/06/08 05:17:26;;;;;;;6.72;5.75;;;12.20;99.90;;;;;;5056231;28;20062;-38
2023/06/08 05:19:51;;;;;;;6.60;5.35;;;12.30;99.90;;;;;;5067178;28;20032;-41
2023/06/08 05:22:17;;;;;;;7.80;6.55;;;12.40;99.90;;;;;;5065606;28;20078;-39
2023/06/08 05:24:43;;;;;;;8.23;7.38;;;12.50;99.90;;;;;;5066632;28;20086;-42
2023/06/08 05:27:09;;;;;;;6.93;6.22;;;12.70;99.90;;;;;;5072819;28;20021;-40
2023/06/08 05:29:35;;;;;;;6.88;5.93;;;12.90;99.90;;;;;;5069718;28;20025;-42
2023/06/08 05:32:01;;;;;;;7.43;6.00;;;13.10;99.90;;;;;;5076635;28;20040;-39
2023/06/08 05:34:27;;;;;;;7.97;6.53;;;13.30;99.90;;;;;;5064644;28;20058;-41
2023/06/08 05:36:54;;;;;;;8.93;6.43;;;13.40;99.90;;;;;;5072841;28;20485;-41
2023/06/08 05:39:20;;;;;;;9.07;6.53;;;13.60;99.90;;;;;;5052616;28;20032;-40
2023/06/08 05:41:46;;;;;;;8.00;6.85;;;13.70;99.90;;;;;;5063915;28;20028;-41
2023/06/08 05:44:12;;;;;;;8.35;6.75;;;13.90;99.90;;;;;;5071219;28;20035;-42
2023/06/08 05:46:38;;;;;;;8.20;7.40;;;14.00;99.90;;;;;;5066206;28;20028;-33
2023/06/08 05:49:03;;;;;;;8.00;7.20;;;14.10;99.90;;;;;;5065755;28;20028;-35
2023/06/08 05:51:29;;;;;;;9.05;7.95;;;14.20;99.90;;;;;;5068865;28;20390;-37
2023/06/08 05:53:55;;;;;;;9.85;7.50;;;14.40;99.90;;;;;;5067648;28;20056;-35
2023/06/08 05:56:21;;;;;;;10.25;8.27;;;14.40;99.90;;;;;;5060506;28;20033;-35
2023/06/08 05:58:47;;;;;;;9.98;8.80;;;14.30;99.90;;;;;;5065507;28;20028;-37
2023/06/08 06:01:13;;;;;;;11.13;8.25;;;14.40;99.90;;;;;;5059813;28;20440;-35
2023/06/08 06:03:40;;;;;;;8.80;7.90;;;14.50;99.90;;;;;;5051411;28;20060;-33
2023/06/08 06:06:06;;;;;;;8.90;8.00;;;14.60;99.90;;;;;;5076193;28;20036;-35
2023/06/08 06:08:32;;;;;;;10.13;8.13;;;14.80;99.90;;;;;;5067636;28;20030;-36
2023/06/08 06:10:58;;;;;;;9.48;7.57;;;14.80;99.90;;;;;;5071285;28;20032;-34
2023/06/08 06:13:24;;;;;;;10.93;8.63;;;15.10;99.90;;;;;;5067276;28;20032;-36
2023/06/08 06:15:50;;;;;;;10.23;8.35;;;15.30;99.90;;;;;;5067708;28;20024;-34
2023/06/08 06:18:16;;;;;;;11.02;9.05;;;15.30;99.90;;;;;;5068457;28;20048;-36
2023/06/08 06:20:42;;;;;;;11.10;8.88;;;15.40;99.90;;;;;;5064091;28;20028;-36
2023/06/08 06:23:07;;;;;;;11.32;8.70;;;15.60;99.90;;;;;;5066409;28;20023;-36
2023/06/08 06:25:35;;;;;;;10.57;8.80;;;15.70;99.90;;;;;;5059980;28;20032;-37
2023/06/08 06:28:01;;;;;;;10.93;9.35;;;15.90;99.90;;;;;;5064403;28;20194;-37
2023/06/08 06:30:27;;;;;;;12.70;9.57;;;16.00;99.90;;;;;;5061804;28;20626;-35
2023/06/08 06:32:53;;;;;;;11.95;10.00;;;16.10;99.90;;;;;;5059648;28;20056;-35
2023/06/08 06:35:18;;;;;;;13.88;10.35;;;16.10;99.90;;;;;;5062927;28;20085;-36
2023/06/08 06:37:44;;;;;;;15.20;10.38;;;16.20;99.90;;;;;;5041985;28;20028;-38
2023/06/08 06:40:11;;;;;;;13.52;10.27;;;16.30;99.90;;;;;;5058397;28;20071;-35
2023/06/08 06:42:37;;;;;;;14.10;10.80;;;16.60;99.90;;;;;;5045172;28;20027;-34
2023/06/08 06:45:04;;;;;;;14.35;10.73;;;16.80;99.90;;;;;;5040916;28;20036;-36
2023/06/08 06:47:30;;;;;;;13.48;10.93;;;16.90;99.90;;;;;;5042329;28;20035;-36
2023/06/08 06:49:55;;;;;;;12.45;10.95;;;17.20;99.90;;;;;;5061064;28;20405;-34
2023/06/08 06:52:21;;;;;;;15.00;10.70;;;17.20;99.90;;;;;;5066043;28;20082;-36
2023/06/08 06:54:47;;;;;;;11.95;10.00;;;17.40;99.90;;;;;;5059818;28;20143;-42
2023/06/08 06:57:13;;;;;;;18.02;11.23;;;17.50;99.90;;;;;;5071264;28;20036;-42
2023/06/08 06:59:39;;;;;;;14.48;11.60;;;17.70;99.90;;;;;;5063245;28;20066;-41
2023/06/08 07:02:06;;;;;;;13.63;11.80;;;17.90;99.90;;;;;;5047216;28;20617;-41
2023/06/08 07:04:32;;;;;;;12.50;11.00;;;17.90;99.90;;;;;;5065991;28;20058;-43
2023/06/08 07:06:57;;;;;;;14.90;11.43;;;18.10;99.90;;;;;;5061920;28;20064;-41
2023/06/08 07:09:24;;;;;;;14.82;11.27;;;18.20;99.90;;;;;;5065142;28;20032;-41
2023/06/08 07:11:51;;;;;;;15.00;11.73;;;18.30;99.90;;;;;;5065731;28;20112;-42
2023/06/08 07:14:16;;;;;;;13.10;10.90;;;18.50;99.90;;;;;;5065381;28;20124;-41
2023/06/08 07:16:42;;;;;;;14.88;11.18;;;18.80;99.90;;;;;;5064989;28;21686;-35
2023/06/08 07:19:08;;;;;;;13.50;11.27;;;18.90;99.90;;;;;;5064653;28;20089;-42
2023/06/08 07:21:38;;;;;;;12.00;10.73;;;19.10;99.90;;;;;;5068224;28;20500;-40
2023/06/08 07:24:04;;;;;;;15.95;11.30;;;19.20;99.90;;;;;;5058782;28;20449;-38
2023/06/08 07:26:30;;;;;;;15.68;9.98;;;19.40;99.90;;;;;;5061411;28;20412;-40
2023/06/08 07:28:59;;;;;;;13.95;11.30;;;19.70;99.90;;;;;;5050649;28;20028;-43
2023/06/08 07:31:26;;;;;;;12.38;10.25;;;19.80;99.90;;;;;;5067688;28;20398;-42
2023/06/08 07:33:53;;;;;;;13.53;10.37;;;20.20;99.90;;;;;;5067342;28;20490;-40
2023/06/08 07:36:20;;;;;;;10.45;8.68;;;20.40;99.90;;;;;;5063160;28;20289;-42
2023/06/08 07:38:50;;;;;;;12.35;10.43;;;20.70;99.90;;;;;;5046547;28;20033;-41
2023/06/08 07:41:19;;;;;;;11.45;9.60;;;20.90;99.90;;;;;;5068906;28;20044;-39
2023/06/08 07:43:46;;;;;;;10.52;8.88;;;20.90;99.90;;;;;;5035456;28;20024;-40
2023/06/08 07:46:12;;;;;;;13.07;10.07;;;21.20;99.90;;;;;;5070006;28;20063;-42
2023/06/08 07:48:38;;;;;;;12.75;9.50;;;21.20;99.90;;;;;;5066839;28;20062;-41
2023/06/08 07:51:04;;;;;;;10.35;9.10;;;21.30;99.90;;;;;;5068349;28;20937;-41
2023/06/08 07:53:37;;;;;;;13.35;9.20;;;21.60;99.90;;;;;;5063987;28;20028;-42
2023/06/08 07:56:03;;;;;;;10.40;9.25;;;21.90;99.90;;;;;;5068600;28;20104;-42
2023/06/08 07:58:30;;;;;;;11.02;8.55;;;22.00;99.90;;;;;;5048661;28;20036;-41
2023/06/08 08:00:56;;;;;;;11.00;8.93;;;22.20;99.90;;;;;;5068573;28;20598;-38
2023/06/08 08:03:21;;;;;;;9.13;8.23;;;22.20;99.90;;;;;;5064734;28;20085;-43
2023/06/08 08:05:49;;;;;;;12.13;9.38;;;22.20;99.90;;;;;;5068285;28;20115;-43
2023/06/08 08:08:15;;;;;;;10.95;8.93;;;22.00;99.90;;;;;;5073170;28;20020;-43
2023/06/08 08:10:41;;;;;;;9.00;7.88;;;21.80;99.90;;;;;;5066027;28;20033;-40
2023/06/08 08:13:07;;;;;;;9.65;8.18;;;22.10;99.90;;;;;;5073100;28;20465;-40
2023/06/08 08:15:33;;;;;;;10.77;8.07;;;22.20;99.90;;;;;;5071675;28;20024;-42
2023/06/08 08:17:59;;;;;;;9.75;8.60;;;22.20;99.90;;;;;;5064895;28;20124;-40
2023/06/08 08:20:25;;;;;;;10.77;9.02;;;22.20;99.90;;;;;;5069293;28;20012;-41
2023/06/08 08:22:50;;;;;;;12.57;9.57;;;22.10;99.90;;;;;;5057856;28;21003;-40
2023/06/08 08:25:16;;;;;;;9.82;8.77;;;22.20;99.90;;;;;;5068366;28;20047;-41
2023/06/08 08:27:41;;;;;;;9.73;8.65;;;22.20;99.90;;;;;;5064253;28;20029;-40
2023/06/08 08:30:08;;;;;;;11.27;9.45;;;22.40;99.90;;;;;;5044741;28;20494;-41
2023/06/08 08:32:33;;;;;;;10.02;9.02;;;22.50;99.90;;;;;;5071507;28;20071;-39
2023/06/08 08:34:59;;;;;;;10.48;8.77;;;22.70;99.90;;;;;;5064418;28;20056;-42
2023/06/08 08:37:25;;;;;;;11.00;9.02;;;22.80;99.90;;;;;;5069998;28;20070;-40
2023/06/08 08:39:51;;;;;;;9.82;8.73;;;23.00;99.90;;;;;;5049736;28;20029;-42
2023/06/08 08:42:26;;;;;;;9.63;8.48;;;23.20;99.90;;;;;;5073432;28;20028;-39
2023/06/08 08:44:56;;;;;;;9.18;8.25;;;23.40;99.90;;;;;;5066927;28;20055;-42
2023/06/08 08:47:31;;;;;;;12.00;8.90;;;23.00;99.90;;;;;;5042230;28;20060;-42
2023/06/08 08:50:06;;;;;;;9.82;8.57;;;23.10;99.90;;;;;;5045256;28;20516;-39
2023/06/08 08:52:33;;;;;;;9.68;7.43;;;23.20;99.90;;;;;;5065023;28;20117;-42
2023/06/08 08:55:04;;;;;;;9.15;7.35;;;23.20;99.90;;;;;;5058271;28;20043;-40
2023/06/08 08:57:31;;;;;;;7.60;6.43;;;23.30;99.90;;;;;;5067163;28;20032;-41
2023/06/08 08:59:58;;;;;;;7.35;6.10;;;23.30;99.90;;;;;;5063092;28;20189;-41
2023/06/08 09:02:24;;;;;;;7.40;6.70;;;23.60;99.90;;;;;;5043871;28;20048;-40
2023/06/08 09:04:52;;;;;;;8.18;6.43;;;23.60;99.90;;;;;;5026150;28;20120;-42
2023/06/08 09:07:19;;;;;;;7.03;6.35;;;23.70;99.90;;;;;;5032395;28;20045;-43
2023/06/08 09:10:21;;;;;;;6.83;6.10;;;23.70;99.90;;;;;;5022909;28;20057;-43
2023/06/08 09:12:51;;;;;;;6.60;6.00;;;23.50;99.90;;;;;;5016888;28;20025;-42
2023/06/08 09:15:34;;;;;;;6.15;5.57;;;23.70;99.90;;;;;;5021557;28;20024;-42
2023/06/08 09:18:13;;;;;;;7.10;6.20;;;23.70;99.90;;;;;;5022994;28;20414;-40
2023/06/08 09:20:39;;;;;;;7.82;6.80;;;23.70;99.90;;;;;;5018200;28;20029;-43
2023/06/08 09:26:31;;;;;;;6.55;5.75;;;23.60;99.90;;;;;;5023809;28;20075;-41
2023/06/08 09:28:56;;;;;;;5.95;5.35;;;23.90;99.90;;;;;;5025251;28;20064;-40
2023/06/08 09:31:23;;;;;;;6.90;5.60;;;24.10;99.90;;;;;;5040256;28;20044;-41
2023/06/08 09:33:48;;;;;;;6.20;5.32;;;24.20;99.90;;;;;;5060203;28;20025;-40
2023/06/08 09:36:17;;;;;;;6.15;5.55;;;24.20;99.90;;;;;;5062908;28;20489;-41
2023/06/08 09:38:43;;;;;;;6.45;5.90;;;23.80;99.90;;;;;;5070558;28;20032;-41
2023/06/08 09:41:16;;;;;;;6.00;5.28;;;23.40;99.90;;;;;;5066737;28;20163;-41
2023/06/08 09:43:45;;;;;;;5.57;5.05;;;23.40;99.90;;;;;;5067112;28;20033;-41
2023/06/08 09:46:13;;;;;;;6.32;5.00;;;23.80;99.90;;;;;;5060534;28;20421;-41
2023/06/08 09:48:59;;;;;;;6.88;5.45;;;24.10;99.90;;;;;;5066030;28;20021;-41
2023/06/08 09:51:25;;;;;;;5.55;4.97;;;24.30;99.90;;;;;;5953233;22;20983;-86
2023/06/08 09:53:57;;;;;;;5.60;5.03;;;24.10;99.90;;;;;;5047725;28;20065;-87
2023/06/08 09:56:25;;;;;;;6.22;5.15;;;23.90;99.90;;;;;;5054847;28;20041;-88
2023/06/08 09:58:56;;;;;;;;;;;24.00;99.90;;;;;;5046306;28;20037;-87
2023/06/08 10:01:40;;;;;;;5.97;5.07;;;24.20;99.90;;;;;;5045549;28;20306;-87
2023/06/08 10:04:21;;;;;;;6.90;5.07;;;24.40;99.90;;;;;;5058112;28;20292;-87
2023/06/08 10:06:51;;;;;;;5.88;4.60;;;24.50;99.90;;;;;;5056120;28;20025;-87
2023/06/08 10:09:24;;;;;;;4.63;4.22;;;24.50;99.90;;;;;;5061709;28;20039;-84
2023/06/08 10:11:51;;;;;;;5.95;4.70;;;24.60;99.90;;;;;;5055876;28;20021;-87
2023/06/08 10:14:17;;;;;;;7.88;4.53;;;24.70;99.90;;;;;;5058737;28;20029;-85
2023/06/08 10:16:43;;;;;;;5.10;4.70;;;24.80;99.90;;;;;;5054999;28;20038;-85
2023/06/08 10:19:10;;;;;;;5.40;4.30;;;24.90;99.90;;;;;;5053698;28;20142;-83
2023/06/08 10:21:37;;;;;;;4.13;3.73;;;25.00;99.90;;;;;;5056367;28;20035;-82
2023/06/08 10:24:03;;;;;;;4.82;4.32;;;25.20;99.90;;;;;;5058146;28;20372;-84
2023/06/08 10:26:32;;;;;;;17.83;4.90;;;25.10;99.90;;;;;;5051359;28;20053;-84
2023/06/08 10:29:06;;;;;;;5.43;4.38;;;25.00;99.90;;;;;;5057945;28;20064;-83
2023/06/08 10:31:34;;;;;;;4.47;4.07;;;25.20;99.90;;;;;;5035620;28;20048;-83
2023/06/08 10:34:06;;;;;;;4.97;4.25;;;25.30;99.90;;;;;;5052841;28;20751;-82
2023/06/08 10:36:36;;;;;;;5.40;4.90;;;25.30;99.90;;;;;;5032045;28;20040;-82
2023/06/08 10:39:16;;;;;;;4.45;3.92;;;25.20;99.90;;;;;;5054919;28;20033;-82
2023/06/08 10:41:52;;;;;;;5.80;4.40;;;25.30;99.90;;;;;;5047179;28;20044;-82
2023/06/08 10:44:36;;;;;;;4.63;4.18;;;26.00;99.90;;;;;;5055198;28;20036;-83
2023/06/08 10:47:12;;;;;;;5.70;4.05;;;26.10;99.90;;;;;;5051309;28;20025;-82
2023/06/08 10:49:39;;;;;;;4.45;3.88;;;26.00;99.90;;;;;;5052798;28;20033;-83
2023/06/08 10:52:07;;;;;;;5.32;4.75;;;25.80;99.90;;;;;;5036826;28;20053;-82
2023/06/08 10:54:52;;;;;;;4.90;4.30;;;25.70;99.90;;;;;;5031154;28;20029;-83
2023/06/08 10:57:36;;;;;;;4.40;3.97;;;25.60;99.90;;;;;;5033794;28;20032;-81
2023/06/08 11:00:25;;;;;;;5.07;4.60;;;25.70;99.90;;;;;;5019871;28;20041;-81
2023/06/08 11:02:52;;;;;;;4.78;4.22;;;25.50;99.90;;;;;;5032446;28;20042;-83
2023/06/08 11:05:19;;;;;;;4.60;4.20;;;25.70;99.90;;;;;;5030650;28;20652;-83
2023/06/08 11:07:45;;;;;;;5.97;3.90;;;25.90;99.90;;;;;;5054948;28;20033;-83
2023/06/08 11:10:11;;;;;;;5.82;4.05;;;26.20;99.90;;;;;;5029066;28;20056;-83
2023/06/08 11:12:37;;;;;;;5.00;4.13;;;26.70;99.90;;;;;;5039519;28;20025;-83
2023/06/08 11:15:03;;;;;;;4.93;4.07;;;27.20;99.90;;;;;;5031372;28;20681;-84
2023/06/08 11:17:31;;;;;;;4.43;4.05;;;27.20;99.90;;;;;;5029557;28;20075;-84
2023/06/08 11:20:05;;;;;;;4.72;3.80;;;27.50;99.90;;;;;;5034491;28;20392;-84
2023/06/08 11:22:31;;;;;;;4.07;3.67;;;27.70;99.90;;;;;;5033880;28;20041;-82
2023/06/08 11:24:58;;;;;;;5.85;3.95;;;27.70;99.90;;;;;;5032537;28;20037;-83
2023/06/08 11:27:23;;;;;;;4.30;3.50;;;27.80;99.90;;;;;;5033877;28;20034;-82
2023/06/08 11:29:49;;;;;;;5.32;3.95;;;27.60;99.90;;;;;;5036662;28;20030;-83
2023/06/08 11:32:18;;;;;;;4.30;3.78;;;27.40;99.90;;;;;;5032745;28;20041;-83
2023/06/08 11:34:49;;;;;;;4.60;4.10;;;27.00;99.90;;;;;;5031301;28;21630;-82
2023/06/08 11:37:16;;;;;;;4.50;4.10;;;27.10;99.90;;;;;;5026940;28;20053;-94
2023/06/08 11:39:47;;;;;;;5.47;4.22;;;26.80;99.90;;;;;;5038448;28;20049;-92
2023/06/08 11:42:13;;;;;;;4.25;3.85;;;26.90;99.90;;;;;;5031713;28;20038;-91
2023/06/08 11:44:39;;;;;;;4.78;4.22;;;26.50;99.90;;;;;;5034136;28;20025;-91
2023/06/08 11:47:08;;;;;;;5.65;4.57;;;25.90;99.90;;;;;;5035215;28;21136;-91
2023/06/08 11:50:03;;;;;;;4.50;4.10;;;25.70;99.90;;;;;;5040136;28;20113;-93
2023/06/08 11:52:34;;;;;;;4.40;4.00;;;26.20;99.90;;;;;;5049812;28;20056;-92
2023/06/08 11:55:04;;;;;;;5.38;4.00;;;26.70;99.90;;;;;;5052925;28;20092;-91
2023/06/08 11:57:40;;;;;;;5.13;4.40;;;27.20;99.90;;;;;;5060381;28;20043;-91
2023/06/08 12:00:14;;;;;;;4.47;4.07;;;27.70;99.90;;;;;;5053818;28;20057;-92
2023/06/08 12:02:40;;;;;;;4.60;4.20;;;27.80;99.90;;;;;;5058451;28;20093;-89
2023/06/08 12:05:12;;;;;;;4.43;4.03;;;27.80;99.90;;;;;;5051275;28;20029;-92
2023/06/08 12:07:38;;;;;;;5.20;4.70;;;27.00;99.90;;;;;;5058822;28;20620;-92
2023/06/08 12:10:12;;;;;;;7.20;4.47;;;26.50;99.90;;;;;;5060529;28;20025;-86
2023/06/08 12:12:37;;;;;;;4.30;3.80;;;25.80;99.90;;;;;;5034405;28;20033;-87
2023/06/08 12:15:03;;;;;;;7.75;4.30;;;25.80;99.90;;;;;;5053257;28;20041;-86
2023/06/08 12:17:29;;;;;;;4.00;3.55;;;25.90;99.90;;;;;;5050352;28;20116;-87
2023/06/08 12:19:55;;;;;;;4.22;3.83;;;26.10;99.90;;;;;;5034646;28;20068;-87
2023/06/08 12:22:22;;;;;;;6.43;4.05;;;26.20;99.90;;;;;;5054127;28;20056;-86
2023/06/08 12:24:47;;;;;;;4.07;3.55;;;26.40;99.90;;;;;;5051511;28;20033;-87
2023/06/08 12:27:14;;;;;;;3.90;3.60;;;26.60;99.90;;;;;;5050088;28;20038;-87
2023/06/08 12:29:41;;;;;;;4.22;3.80;;;26.80;99.90;;;;;;5036170;28;20064;-87
2023/06/08 12:32:07;;;;;;;5.22;4.00;;;27.20;99.90;;;;;;5048198;28;20037;-87
2023/06/08 12:34:33;;;;;;;4.50;4.10;;;27.40;99.90;;;;;;5056517;28;20039;-91
2023/06/08 12:36:59;;;;;;;4.43;4.00;;;27.30;99.90;;;;;;5060470;28;20033;-87
2023/06/08 12:39:25;;;;;;;4.72;4.32;;;27.30;99.90;;;;;;5055752;28;20044;-87
2023/06/08 12:41:51;;;;;;;4.30;3.90;;;27.30;99.90;;;;;;5040172;28;20045;-88
2023/06/08 12:44:17;;;;;;;4.25;3.85;;;27.50;99.90;;;;;;5058103;28;20064;-88
2023/06/08 12:46:43;;;;;;;5.53;4.43;;;27.90;99.90;;;;;;5056470;28;20040;-86
2023/06/08 12:49:09;;;;;;;5.53;4.15;;;28.10;99.90;;;;;;5061904;28;20041;-88
2023/06/08 12:51:35;;;;;;;4.45;3.92;;;27.80;99.90;;;;;;5053916;28;20045;-88
2023/06/08 12:54:01;;;;;;;5.13;4.05;;;27.40;99.90;;;;;;5062208;28;20109;-86